createdAt,value
2023-04-24T00:02:12.121Z,10.28
2023-04-24T00:07:14.091Z,10.34
2023-04-24T00:12:16.128Z,10.40
2023-04-24T00:17:21.030Z,10.43
2023-04-24T00:22:23.174Z,10.45
2023-04-24T00:27:24.937Z,10.46
2023-04-24T00:32:26.735Z,10.48
2023-04-24T00:37:28.668Z,10.47
2023-04-24T00:42:30.730Z,10.47
2023-04-24T00:47:33.871Z,10.48
2023-04-24T00:52:35.887Z,10.52
2023-04-24T00:57:38.340Z,10.55
2023-04-24T01:02:41.542Z,10.57
2023-04-24T01:07:46.550Z,10.55
2023-04-24T01:12:48.537Z,10.55
2023-04-24T01:17:51.064Z,10.54
2023-04-24T01:22:54.054Z,10.52
2023-04-24T01:27:58.297Z,10.51
2023-04-24T01:33:00.954Z,10.50
2023-04-24T01:38:03.144Z,10.48
2023-04-24T01:43:05.164Z,10.48
2023-04-24T01:48:07.123Z,10.48
2023-04-24T01:53:08.963Z,10.47
2023-04-24T01:58:11.855Z,10.47
2023-04-24T02:03:13.900Z,10.50
2023-04-24T02:08:16.069Z,10.54
2023-04-24T02:13:17.893Z,10.60
2023-04-24T02:18:19.639Z,10.67
2023-04-24T02:23:21.604Z,10.74
2023-04-24T02:28:23.356Z,10.78
2023-04-24T02:33:26.077Z,10.82
2023-04-24T02:38:27.875Z,10.82
2023-04-24T02:43:29.839Z,10.83
2023-04-24T02:48:31.624Z,10.91
2023-04-24T02:53:33.887Z,10.95
2023-04-24T02:58:36.606Z,10.89
2023-04-24T03:03:39.198Z,10.84
2023-04-24T03:08:41.195Z,10.76
2023-04-24T03:13:43.070Z,10.67
2023-04-24T03:18:44.914Z,10.64
2023-04-24T03:23:47.443Z,10.73
2023-04-24T03:28:50.364Z,10.80
2023-04-24T03:33:52.808Z,10.84
2023-04-24T03:38:54.749Z,10.85
2023-04-24T03:44:03.072Z,10.85
2023-04-24T03:49:06.546Z,10.87
2023-04-24T03:54:11.351Z,10.96
2023-04-24T03:59:14.769Z,11.15
2023-04-24T04:07:13.916Z,11.60
2023-04-24T04:12:16.031Z,11.75
2023-04-24T04:17:19.121Z,11.84
2023-04-24T04:22:20.828Z,12.12
2023-04-24T04:27:25.753Z,12.54
2023-04-24T04:32:36.427Z,12.85
2023-04-24T04:37:39.275Z,12.87
2023-04-24T04:42:57.133Z,12.83
2023-04-24T04:48:01.866Z,12.77
2023-04-24T04:53:06.313Z,12.76
2023-04-24T04:58:09.883Z,12.80
2023-04-24T05:03:20.648Z,12.92
2023-04-24T05:08:27.553Z,13.13
2023-04-24T05:13:39.355Z,13.38
2023-04-24T05:18:48.888Z,13.65
2023-04-24T05:23:53.608Z,13.93
2023-04-24T05:29:27.311Z,14.40
2023-04-24T05:34:29.271Z,14.96
2023-04-24T05:39:31.901Z,15.50
2023-04-24T05:44:35.114Z,16.03
2023-04-24T05:49:36.862Z,16.54
2023-04-24T05:54:38.807Z,17.07
2023-04-24T05:59:42.222Z,17.45
2023-04-24T06:04:46.436Z,17.72
2023-04-24T06:09:48.599Z,18.17
2023-04-24T06:14:51.299Z,18.75
2023-04-24T06:20:02.196Z,19.28
2023-04-24T06:25:05.526Z,19.62
2023-04-24T06:30:08.100Z,19.99
2023-04-24T06:35:10.875Z,20.55
2023-04-24T06:40:13.959Z,21.19
2023-04-24T06:45:16.031Z,21.66
2023-04-24T06:50:18.011Z,21.95
2023-04-24T06:55:19.688Z,21.92
2023-04-24T07:00:21.889Z,21.87
2023-04-24T07:05:24.562Z,21.87
2023-04-24T07:10:29.492Z,21.98
2023-04-24T07:15:31.612Z,21.98
2023-04-24T07:20:34.588Z,21.84
2023-04-24T07:25:36.682Z,21.72
2023-04-24T07:30:38.363Z,21.66
2023-04-24T07:35:40.294Z,21.77
2023-04-24T07:40:42.047Z,22.11
2023-04-24T07:45:44.227Z,22.57
2023-04-24T07:50:46.179Z,22.88
2023-04-24T07:55:47.938Z,23.15
2023-04-24T08:00:49.954Z,23.41
2023-04-24T08:05:52.246Z,23.56
2023-04-24T08:10:54.008Z,23.36
2023-04-24T08:15:56.048Z,23.32
2023-04-24T08:21:02.482Z,23.40
2023-04-24T08:26:04.501Z,23.62
2023-04-24T08:31:06.359Z,23.85
2023-04-24T08:36:08.790Z,24.03
2023-04-24T08:41:11.187Z,24.01
2023-04-24T08:46:14.448Z,24.09
2023-04-24T08:51:16.201Z,24.50
2023-04-24T08:56:18.357Z,25.23
2023-04-24T09:01:21.259Z,25.79
2023-04-24T09:06:24.261Z,26.39
2023-04-24T09:11:26.624Z,26.95
2023-04-24T09:16:28.942Z,27.13
2023-04-24T09:21:35.616Z,26.89
2023-04-24T09:26:37.853Z,26.78
2023-04-24T09:31:39.679Z,26.91
2023-04-24T09:36:43.876Z,27.41
2023-04-24T09:41:54.173Z,27.98
2023-04-24T09:46:58.203Z,28.17
2023-04-24T09:52:07.798Z,27.76
2023-04-24T09:57:10.422Z,27.46
2023-04-24T10:02:20.322Z,26.88
2023-04-24T10:07:22.513Z,26.62
2023-04-24T10:12:33.861Z,26.57
2023-04-24T10:17:36.471Z,26.76
2023-04-24T10:22:38.569Z,26.61
2023-04-24T10:27:40.589Z,26.42
2023-04-24T10:32:42.333Z,26.26
2023-04-24T10:37:47.507Z,26.04
2023-04-24T10:42:52.706Z,25.79
2023-04-24T10:48:11.882Z,25.10
2023-04-24T10:53:19.372Z,24.50
2023-04-24T10:58:25.103Z,23.91
2023-04-24T11:03:28.003Z,23.59
2023-04-24T11:08:31.607Z,23.71
2023-04-24T11:13:54.762Z,23.84
2023-04-24T11:19:19.448Z,23.79
2023-04-24T11:24:39.096Z,23.65
2023-04-24T11:30:02.371Z,23.53
2023-04-24T11:35:08.554Z,23.00
2023-04-24T11:40:13.007Z,22.39
2023-04-24T11:45:26.986Z,21.89
2023-04-24T11:50:29.882Z,21.44
2023-04-24T11:55:31.692Z,21.23
2023-04-24T12:00:36.690Z,20.83
2023-04-24T12:05:41.236Z,20.41
2023-04-24T12:10:42.980Z,20.18
2023-04-24T12:15:44.810Z,20.07
2023-04-24T12:20:46.691Z,19.90
2023-04-24T12:25:48.564Z,19.95
2023-04-24T12:30:51.232Z,20.03
2023-04-24T12:35:56.620Z,20.04
2023-04-24T12:41:06.621Z,20.27
2023-04-24T12:46:08.298Z,20.68
2023-04-24T12:51:10.025Z,20.76
2023-04-24T12:56:11.704Z,20.65
2023-04-24T13:01:13.451Z,20.65
2023-04-24T13:06:17.673Z,20.69
2023-04-24T13:11:19.383Z,20.62
2023-04-24T13:16:22.482Z,20.37
2023-04-24T13:21:24.176Z,20.13
2023-04-24T13:26:26.406Z,19.82
2023-04-24T13:31:28.255Z,19.58
2023-04-24T13:36:31.564Z,19.23
2023-04-24T13:41:34.706Z,18.91
2023-04-24T13:46:36.591Z,18.76
2023-04-24T13:51:38.917Z,18.55
2023-04-24T13:56:41.906Z,18.20
2023-04-24T14:01:43.925Z,17.93
2023-04-24T14:06:45.775Z,17.64
2023-04-24T14:11:47.483Z,17.32
2023-04-24T14:16:49.229Z,17.01
2023-04-24T14:21:51.168Z,16.84
2023-04-24T14:26:52.884Z,16.79
2023-04-24T14:31:54.620Z,16.81
2023-04-24T14:36:56.931Z,16.84
2023-04-24T14:41:58.603Z,16.74
2023-04-24T14:47:01.109Z,16.60
2023-04-24T14:52:03.952Z,16.47
2023-04-24T14:57:05.739Z,16.43
2023-04-24T15:02:16.170Z,16.43
2023-04-24T15:07:19.848Z,16.47
2023-04-24T15:12:22.776Z,16.41
2023-04-24T15:17:24.674Z,16.36
2023-04-24T15:22:26.521Z,16.30
2023-04-24T15:27:28.274Z,16.12
2023-04-24T15:32:30.012Z,16.02
2023-04-24T15:37:31.862Z,15.85
2023-04-24T15:42:33.881Z,15.71
2023-04-24T15:47:36.614Z,15.61
2023-04-24T15:52:38.462Z,15.51
2023-04-24T15:57:40.835Z,15.44
2023-04-24T16:02:42.770Z,15.31
2023-04-24T16:07:44.912Z,15.10
2023-04-24T16:12:46.639Z,14.88
2023-04-24T16:17:50.729Z,14.76
2023-04-24T16:22:52.505Z,14.63
2023-04-24T16:27:54.586Z,14.43
2023-04-24T16:32:56.662Z,14.28
2023-04-24T16:37:58.754Z,14.16
2023-04-24T16:43:00.738Z,14.07
2023-04-24T16:48:02.731Z,13.97
2023-04-24T16:53:04.847Z,13.88
2023-04-24T16:58:06.672Z,13.77
2023-04-24T17:03:09.772Z,13.68
2023-04-24T17:08:13.586Z,13.59
2023-04-24T17:13:15.616Z,13.52
2023-04-24T17:18:18.333Z,13.46
2023-04-24T17:23:21.037Z,13.38
2023-04-24T17:28:28.562Z,13.31
2023-04-24T17:33:30.938Z,13.26
2023-04-24T17:38:33.032Z,13.17
2023-04-24T17:43:34.891Z,13.10
2023-04-24T17:48:37.346Z,13.04
2023-04-24T17:53:39.591Z,12.98
2023-04-24T17:58:41.657Z,12.90
2023-04-24T18:03:44.648Z,12.82
2023-04-24T18:08:46.899Z,12.73
2023-04-24T18:13:49.805Z,12.62
2023-04-24T18:18:51.821Z,12.53
2023-04-24T18:23:54.166Z,12.45
2023-04-24T18:28:56.246Z,12.37
2023-04-24T18:33:58.486Z,12.25
2023-04-24T18:39:00.199Z,12.15
2023-04-24T18:44:02.479Z,12.03
2023-04-24T18:49:04.677Z,11.94
2023-04-24T18:54:06.383Z,11.87
2023-04-24T18:59:08.757Z,11.79
2023-04-24T19:04:11.228Z,11.70
2023-04-24T19:09:12.973Z,11.60
2023-04-24T19:14:16.189Z,11.53
2023-04-24T19:19:20.467Z,11.47
2023-04-24T19:24:22.255Z,11.42
2023-04-24T19:29:24.172Z,11.38
2023-04-24T19:34:26.209Z,11.35
2023-04-24T19:39:28.502Z,11.33
2023-04-24T19:44:30.582Z,11.35
2023-04-24T19:49:32.358Z,11.34
2023-04-24T19:54:34.114Z,11.31
2023-04-24T19:59:36.186Z,11.31
2023-04-24T20:04:38.309Z,11.29
2023-04-24T20:09:40.309Z,11.22
2023-04-24T20:14:42.064Z,11.14
2023-04-24T20:19:44.571Z,11.09
2023-04-24T20:24:46.774Z,10.99
2023-04-24T20:29:48.536Z,10.91
2023-04-24T20:34:50.383Z,10.80
2023-04-24T20:39:52.061Z,10.67
2023-04-24T20:44:53.909Z,10.57
2023-04-24T20:49:55.797Z,10.53
2023-04-24T20:54:57.505Z,10.47
2023-04-24T20:59:59.256Z,10.43
2023-04-24T21:05:01.065Z,10.36
2023-04-24T21:10:03.458Z,10.29
2023-04-24T21:15:28.209Z,10.26
2023-04-24T21:20:30.493Z,10.24
2023-04-24T21:25:32.757Z,10.22
2023-04-24T21:30:34.514Z,10.20
2023-04-24T21:35:36.275Z,10.21
2023-04-24T21:40:38.572Z,10.22
2023-04-24T21:45:40.924Z,10.24
2023-04-24T21:50:44.857Z,10.23
2023-04-24T21:55:46.619Z,10.22
2023-04-24T22:00:48.448Z,10.22
2023-04-24T22:05:50.500Z,10.23
2023-04-24T22:10:53.258Z,10.22
2023-04-24T22:15:55.102Z,10.22
2023-04-24T22:20:57.149Z,10.18
2023-04-24T22:25:58.886Z,10.17
2023-04-24T22:31:00.673Z,10.15
2023-04-24T22:36:02.760Z,10.13
2023-04-24T22:41:04.538Z,10.11
2023-04-24T22:46:06.320Z,10.10
2023-04-24T22:51:08.089Z,10.09
2023-04-24T22:56:09.821Z,10.10
2023-04-24T23:01:11.557Z,10.13
2023-04-24T23:06:13.345Z,10.09
2023-04-24T23:11:16.971Z,10.00
2023-04-24T23:16:18.773Z,9.93
2023-04-24T23:21:20.986Z,9.89
2023-04-24T23:26:22.720Z,9.88
2023-04-24T23:31:26.220Z,9.90
2023-04-24T23:36:28.025Z,9.91
2023-04-24T23:41:31.413Z,9.92
2023-04-24T23:46:38.850Z,9.91
2023-04-24T23:51:42.087Z,9.92
2023-04-24T23:56:43.834Z,9.90
